Time,TemperatureF,DewpointF,PressureIn,WindDirection,WindDirectionDegrees,WindSpeedMPH,WindSpeedGustMPH,Humidity,HourlyPrecipIn,Conditions,Clouds,dailyrainin,SoftwareType,DateUTC
2013-04-10 00:03:00,49.0,43.0,30.06,WSW,249,1.0,4.0,81,0.00,,,0.02,,2013-04-10 04:03:00,
2013-04-10 00:13:00,49.0,43.0,30.06,WSW,249,1.0,4.0,81,0.00,,,0.02,,2013-04-10 04:13:00,
2013-04-10 00:23:00,48.0,43.0,30.04,SE,139,0.0,6.0,82,0.00,,,0.02,,2013-04-10 04:23:00,
2013-04-10 00:33:00,48.0,43.0,30.04,SE,139,0.0,6.0,82,0.00,,,0.02,,2013-04-10 04:33:00,
2013-04-10 00:43:00,48.0,43.0,30.04,SE,139,0.0,6.0,82,0.00,,,0.02,,2013-04-10 04:43:00,
2013-04-10 00:53:00,47.0,42.0,30.02,WSW,252,1.0,6.0,83,0.00,,,0.02,,2013-04-10 04:53:00,
2013-04-10 01:03:00,47.0,42.0,30.02,WSW,252,1.0,6.0,83,0.00,,,0.02,,2013-04-10 05:03:00,
2013-04-10 01:13:00,47.0,42.0,30.02,WSW,252,1.0,6.0,83,0.00,,,0.02,,2013-04-10 05:13:00,
2013-04-10 01:23:00,47.0,42.0,30.05,WNW,296,1.0,6.0,83,0.00,,,0.02,,2013-04-10 05:23:00,
2013-04-10 01:33:00,47.0,42.0,30.05,WNW,296,1.0,6.0,83,0.00,,,0.02,,2013-04-10 05:33:00,
2013-04-10 01:43:00,47.0,42.0,30.05,WNW,296,1.0,6.0,83,0.00,,,0.02,,2013-04-10 05:43:00,
2013-04-10 01:53:00,48.0,43.0,30.06,NNW,334,2.0,5.0,82,0.00,,,0.02,,2013-04-10 05:53:00,
2013-04-10 02:03:00,48.0,43.0,30.06,NNW,334,2.0,5.0,82,0.00,,,0.02,,2013-04-10 06:03:00,
2013-04-10 02:12:00,48.0,43.0,30.07,West,266,0.0,0.0,82,0.00,,,0.02,,2013-04-10 06:12:00,
2013-04-10 02:22:00,48.0,43.0,30.07,West,266,0.0,0.0,82,0.00,,,0.02,,2013-04-10 06:22:00,
2013-04-10 02:32:00,48.0,43.0,30.07,West,266,0.0,0.0,82,0.00,,,0.02,,2013-04-10 06:32:00,
2013-04-10 02:42:00,48.0,43.0,30.07,West,266,0.0,0.0,82,0.00,,,0.02,,2013-04-10 06:42:00,
2013-04-10 02:52:00,47.0,42.0,30.07,West,266,0.0,2.0,83,0.00,,,0.02,,2013-04-10 06:52:00,
2013-04-10 03:02:00,47.0,42.0,30.07,West,266,0.0,2.0,83,0.00,,,0.02,,2013-04-10 07:02:00,
2013-04-10 03:12:00,47.0,42.0,30.07,West,266,0.0,2.0,83,0.00,,,0.02,,2013-04-10 07:12:00,
2013-04-10 03:22:00,47.0,43.0,30.08,West,266,0.0,1.0,86,0.01,,,0.03,,2013-04-10 07:22:00,
2013-04-10 03:32:00,47.0,43.0,30.08,West,266,0.0,1.0,86,0.01,,,0.03,,2013-04-10 07:32:00,
2013-04-10 03:52:00,47.0,44.0,30.07,NE,52,0.0,1.0,89,0.08,,,0.10,,2013-04-10 07:52:00,
2013-04-10 04:02:00,47.0,44.0,30.07,NE,52,0.0,1.0,89,0.08,,,0.10,,2013-04-10 08:02:00,
2013-04-10 04:12:00,47.0,44.0,30.07,NE,52,0.0,1.0,89,0.08,,,0.10,,2013-04-10 08:12:00,
2013-04-10 04:22:00,46.0,44.0,30.01,WSW,238,0.0,3.0,91,0.13,,,0.16,,2013-04-10 08:22:00,
2013-04-10 04:32:00,46.0,44.0,30.01,WSW,238,0.0,3.0,91,0.13,,,0.16,,2013-04-10 08:32:00,
2013-04-10 04:43:00,46.0,44.0,30.01,WSW,238,0.0,3.0,91,0.13,,,0.16,,2013-04-10 08:43:00,
2013-04-10 04:52:00,46.0,44.0,30.02,NE,55,0.0,1.0,93,0.06,,,0.16,,2013-04-10 08:52:00,
2013-04-10 05:02:00,46.0,44.0,30.02,NE,55,0.0,1.0,93,0.06,,,0.16,,2013-04-10 09:02:00,
2013-04-10 05:12:00,46.0,44.0,30.01,NE,52,0.0,0.0,93,0.00,,,0.16,,2013-04-10 09:12:00,
2013-04-10 05:22:00,46.0,44.0,30.01,NE,52,0.0,0.0,93,0.00,,,0.16,,2013-04-10 09:22:00,
2013-04-10 05:32:00,46.0,44.0,30.01,NE,52,0.0,0.0,93,0.00,,,0.16,,2013-04-10 09:32:00,
2013-04-10 05:43:00,46.0,44.0,30.01,NE,52,0.0,0.0,93,0.00,,,0.16,,2013-04-10 09:43:00,
2013-04-10 05:53:00,46.0,44.0,30.01,NE,52,0.0,1.0,94,0.01,,,0.17,,2013-04-10 09:53:00,
2013-04-10 06:03:00,46.0,44.0,30.01,NE,52,0.0,1.0,94,0.01,,,0.17,,2013-04-10 10:03:00,
2013-04-10 06:13:00,46.0,44.0,30.01,NE,53,0.0,1.0,94,0.01,,,0.15,,2013-04-10 10:13:00,
2013-04-10 06:23:00,46.0,44.0,30.01,NE,53,0.0,1.0,94,0.01,,,0.15,,2013-04-10 10:23:00,
2013-04-10 06:33:00,46.0,44.0,30.01,NE,53,0.0,1.0,94,0.01,,,0.15,,2013-04-10 10:33:00,
2013-04-10 06:43:00,46.0,44.0,30.01,NE,53,0.0,1.0,94,0.01,,,0.15,,2013-04-10 10:43:00,
2013-04-10 06:53:00,46.0,44.0,30.01,NE,53,0.0,0.0,94,0.00,,,0.15,,2013-04-10 10:53:00,
2013-04-10 07:02:00,46.0,44.0,30.01,NE,53,0.0,0.0,94,0.00,,,0.15,,2013-04-10 11:02:00,
2013-04-10 07:12:00,46.0,44.0,30.01,NE,53,0.0,0.0,94,0.00,,,0.15,,2013-04-10 11:12:00,
2013-04-10 07:22:00,46.0,44.0,30.02,NE,53,1.0,2.0,94,0.00,,,0.15,,2013-04-10 11:22:00,
2013-04-10 07:32:00,46.0,44.0,30.02,NE,53,1.0,2.0,94,0.00,,,0.15,,2013-04-10 11:32:00,
2013-04-10 07:42:00,46.0,44.0,30.02,NE,53,1.0,2.0,94,0.00,,,0.15,,2013-04-10 11:42:00,
2013-04-10 07:53:00,47.0,45.0,30.03,NE,53,0.0,0.0,94,0.00,,,0.15,,2013-04-10 11:53:00,
2013-04-10 08:03:00,47.0,45.0,30.03,NE,53,0.0,0.0,94,0.00,,,0.15,,2013-04-10 12:03:00,
2013-04-10 08:12:00,47.0,45.0,30.03,NE,53,0.0,0.0,94,0.00,,,0.15,,2013-04-10 12:12:00,
2013-04-10 08:23:00,47.0,45.0,30.03,NE,53,0.0,0.0,94,0.00,,,0.15,,2013-04-10 12:23:00,
2013-04-10 08:33:00,47.0,45.0,30.03,NE,53,0.0,0.0,94,0.00,,,0.15,,2013-04-10 12:33:00,
2013-04-10 08:43:00,47.0,45.0,30.03,NE,53,0.0,0.0,94,0.00,,,0.15,,2013-04-10 12:43:00,
2013-04-10 08:52:00,47.0,45.0,30.03,ENE,64,1.0,2.0,94,0.00,,,0.15,,2013-04-10 12:52:00,
2013-04-10 09:02:00,47.0,45.0,30.03,ENE,64,1.0,2.0,94,0.00,,,0.15,,2013-04-10 13:02:00,
2013-04-10 09:12:00,47.0,45.0,30.03,ENE,64,1.0,2.0,94,0.00,,,0.15,,2013-04-10 13:12:00,
2013-04-10 09:23:00,48.0,46.0,30.04,ENE,70,0.0,2.0,94,0.00,,,0.15,,2013-04-10 13:23:00,
2013-04-10 09:32:00,48.0,46.0,30.04,ENE,70,0.0,2.0,94,0.00,,,0.15,,2013-04-10 13:32:00,
2013-04-10 09:43:00,48.0,46.0,30.04,ENE,70,0.0,2.0,94,0.00,,,0.15,,2013-04-10 13:43:00,
2013-04-10 09:53:00,48.0,46.0,30.05,ENE,74,0.0,2.0,93,0.00,,,0.15,,2013-04-10 13:53:00,
2013-04-10 10:02:00,48.0,46.0,30.05,ENE,74,0.0,2.0,93,0.00,,,0.15,,2013-04-10 14:02:00,
2013-04-10 10:12:00,48.0,46.0,30.05,ENE,74,0.0,2.0,93,0.00,,,0.15,,2013-04-10 14:12:00,
2013-04-10 10:22:00,49.0,46.0,30.04,SSE,157,2.0,5.0,91,0.00,,,0.15,,2013-04-10 14:22:00,
2013-04-10 10:33:00,49.0,46.0,30.04,SSE,157,2.0,5.0,91,0.00,,,0.15,,2013-04-10 14:33:00,
2013-04-10 10:42:00,49.0,46.0,30.04,SSE,157,2.0,5.0,91,0.00,,,0.15,,2013-04-10 14:42:00,
2013-04-10 10:52:00,50.0,47.0,30.04,SSE,157,0.0,2.0,89,0.00,,,0.15,,2013-04-10 14:52:00,
2013-04-10 11:03:00,50.0,47.0,30.04,SSE,157,0.0,2.0,89,0.00,,,0.15,,2013-04-10 15:03:00,
2013-04-10 11:12:00,50.0,47.0,30.04,SSE,157,0.0,2.0,89,0.00,,,0.15,,2013-04-10 15:12:00,
2013-04-10 11:23:00,51.0,46.0,30.05,East,95,0.0,4.0,84,0.00,,,0.15,,2013-04-10 15:23:00,
2013-04-10 11:33:00,51.0,46.0,30.05,East,95,0.0,4.0,84,0.00,,,0.15,,2013-04-10 15:33:00,
2013-04-10 11:43:00,51.0,46.0,30.05,East,95,0.0,4.0,84,0.00,,,0.15,,2013-04-10 15:43:00,
2013-04-10 11:53:00,53.0,47.0,30.06,ENE,74,0.0,3.0,80,0.00,,,0.15,,2013-04-10 15:53:00,
2013-04-10 12:03:00,53.0,47.0,30.06,ENE,74,0.0,3.0,80,0.00,,,0.15,,2013-04-10 16:03:00,
2013-04-10 12:13:00,53.0,47.0,30.06,ENE,74,0.0,3.0,80,0.00,,,0.15,,2013-04-10 16:13:00,
2013-04-10 12:23:00,55.0,47.0,30.04,North,359,1.0,4.0,75,0.00,,,0.15,,2013-04-10 16:23:00,
2013-04-10 12:33:00,55.0,47.0,30.04,North,359,1.0,4.0,75,0.00,,,0.15,,2013-04-10 16:33:00,
2013-04-10 12:43:00,55.0,47.0,30.04,North,359,1.0,4.0,75,0.00,,,0.15,,2013-04-10 16:43:00,
2013-04-10 12:53:00,56.0,47.0,30.03,North,360,1.0,3.0,73,0.00,,,0.15,,2013-04-10 16:53:00,
2013-04-10 13:03:00,56.0,47.0,30.03,North,360,1.0,3.0,73,0.00,,,0.15,,2013-04-10 17:03:00,
2013-04-10 13:13:00,58.0,49.0,30.03,ESE,113,1.0,6.0,71,0.00,,,0.15,,2013-04-10 17:13:00,
2013-04-10 13:22:00,58.0,49.0,30.03,ESE,113,1.0,6.0,71,0.00,,,0.15,,2013-04-10 17:22:00,
2013-04-10 13:33:00,58.0,49.0,30.03,ESE,113,1.0,6.0,71,0.00,,,0.15,,2013-04-10 17:33:00,
2013-04-10 13:43:00,58.0,49.0,30.03,ESE,113,1.0,6.0,71,0.00,,,0.15,,2013-04-10 17:43:00,
2013-04-10 13:53:00,61.0,49.0,30.03,North,1,1.0,5.0,65,0.00,,,0.15,,2013-04-10 17:53:00,
2013-04-10 14:03:00,61.0,49.0,30.03,North,1,1.0,5.0,65,0.00,,,0.15,,2013-04-10 18:03:00,
2013-04-10 14:12:00,61.0,49.0,30.03,North,1,1.0,5.0,65,0.00,,,0.15,,2013-04-10 18:12:00,
2013-04-10 14:23:00,61.0,50.0,30.03,NNE,28,1.0,4.0,66,0.00,,,0.15,,2013-04-10 18:23:00,
2013-04-10 14:33:00,61.0,50.0,30.03,NNE,28,1.0,4.0,66,0.00,,,0.15,,2013-04-10 18:33:00,
2013-04-10 14:43:00,61.0,50.0,30.03,NNE,28,1.0,4.0,66,0.00,,,0.15,,2013-04-10 18:43:00,
2013-04-10 14:53:00,61.0,50.0,30.02,North,356,0.0,4.0,66,0.00,,,0.15,,2013-04-10 18:53:00,
2013-04-10 15:03:00,61.0,50.0,30.02,North,356,0.0,4.0,66,0.00,,,0.15,,2013-04-10 19:03:00,
2013-04-10 15:13:00,61.0,50.0,30.02,North,356,0.0,4.0,66,0.00,,,0.15,,2013-04-10 19:13:00,
2013-04-10 15:22:00,61.0,50.0,30.01,SE,125,2.0,6.0,66,0.00,,,0.15,,2013-04-10 19:22:00,
2013-04-10 15:33:00,61.0,50.0,30.01,SE,125,2.0,6.0,66,0.00,,,0.15,,2013-04-10 19:33:00,
2013-04-10 15:42:00,61.0,50.0,30.01,SE,125,2.0,6.0,66,0.00,,,0.15,,2013-04-10 19:42:00,
2013-04-10 15:53:00,61.0,50.0,29.98,West,262,1.0,3.0,68,0.00,,,0.15,,2013-04-10 19:53:00,
2013-04-10 16:03:00,61.0,50.0,29.98,West,262,1.0,3.0,68,0.00,,,0.15,,2013-04-10 20:03:00,
2013-04-10 16:12:00,61.0,50.0,29.98,West,262,1.0,3.0,68,0.00,,,0.15,,2013-04-10 20:12:00,
2013-04-10 16:23:00,62.0,50.0,29.95,SE,135,1.0,4.0,65,0.00,,,0.15,,2013-04-10 20:23:00,
2013-04-10 16:33:00,62.0,50.0,29.95,SE,135,1.0,4.0,65,0.00,,,0.15,,2013-04-10 20:33:00,
2013-04-10 16:43:00,61.0,50.0,29.96,East,89,0.0,3.0,66,0.00,,,0.15,,2013-04-10 20:43:00,
2013-04-10 16:52:00,61.0,50.0,29.96,East,89,0.0,3.0,66,0.00,,,0.15,,2013-04-10 20:52:00,
2013-04-10 17:03:00,61.0,50.0,29.96,East,89,0.0,3.0,66,0.00,,,0.15,,2013-04-10 21:03:00,
2013-04-10 17:13:00,61.0,50.0,29.96,East,89,0.0,3.0,66,0.00,,,0.15,,2013-04-10 21:13:00,
2013-04-10 17:22:00,61.0,50.0,29.97,ESE,108,0.0,3.0,66,0.00,,,0.15,,2013-04-10 21:22:00,
2013-04-10 17:33:00,61.0,50.0,29.97,ESE,108,0.0,3.0,66,0.00,,,0.15,,2013-04-10 21:33:00,
2013-04-10 17:43:00,61.0,50.0,29.97,ESE,108,0.0,3.0,66,0.00,,,0.15,,2013-04-10 21:43:00,
2013-04-10 17:53:00,61.0,50.0,29.97,ESE,108,0.0,2.0,67,0.00,,,0.15,,2013-04-10 21:53:00,
2013-04-10 18:03:00,61.0,50.0,29.97,ESE,108,0.0,2.0,67,0.00,,,0.15,,2013-04-10 22:03:00,
2013-04-10 18:13:00,61.0,50.0,29.97,ESE,108,0.0,2.0,67,0.00,,,0.15,,2013-04-10 22:13:00,
2013-04-10 18:23:00,59.0,48.0,29.96,SW,234,3.0,9.0,68,0.00,,,0.15,,2013-04-10 22:23:00,
2013-04-10 18:34:00,59.0,48.0,29.96,SW,234,3.0,9.0,68,0.00,,,0.15,,2013-04-10 22:34:00,
2013-04-10 18:43:00,59.0,48.0,29.96,SW,234,3.0,9.0,68,0.00,,,0.15,,2013-04-10 22:43:00,
2013-04-10 18:53:00,58.0,48.0,29.94,West,260,1.0,6.0,70,0.00,,,0.15,,2013-04-10 22:53:00,
2013-04-10 19:03:00,58.0,48.0,29.94,West,260,1.0,6.0,70,0.00,,,0.15,,2013-04-10 23:03:00,
2013-04-10 19:12:00,58.0,48.0,29.94,West,260,1.0,6.0,70,0.00,,,0.15,,2013-04-10 23:12:00,
2013-04-10 19:22:00,57.0,48.0,29.96,NNW,342,2.0,7.0,72,0.00,,,0.15,,2013-04-10 23:22:00,
2013-04-10 19:33:00,57.0,48.0,29.96,NNW,342,2.0,7.0,72,0.00,,,0.15,,2013-04-10 23:33:00,
2013-04-10 19:43:00,57.0,48.0,29.96,NNW,342,2.0,7.0,72,0.00,,,0.15,,2013-04-10 23:43:00,
2013-04-10 19:53:00,52.0,47.0,29.97,NW,307,1.0,6.0,84,0.11,,,0.26,,2013-04-10 23:53:00,
2013-04-10 20:02:00,52.0,47.0,29.97,NW,307,1.0,6.0,84,0.11,,,0.26,,2013-04-11 00:02:00,
2013-04-10 20:13:00,52.0,47.0,29.97,NW,307,1.0,6.0,84,0.11,,,0.26,,2013-04-11 00:13:00,
2013-04-10 20:23:00,50.0,47.0,29.97,WNW,298,0.0,3.0,89,0.19,,,0.34,,2013-04-11 00:23:00,
2013-04-10 20:32:00,50.0,47.0,29.97,WNW,298,0.0,3.0,89,0.19,,,0.34,,2013-04-11 00:32:00,
2013-04-10 20:43:00,50.0,47.0,29.97,WNW,298,0.0,3.0,89,0.19,,,0.34,,2013-04-11 00:43:00,
2013-04-10 20:53:00,50.0,47.0,30.01,ENE,65,2.0,4.0,91,0.15,,,0.41,,2013-04-11 00:53:00,
2013-04-10 21:02:00,50.0,47.0,30.01,ENE,65,2.0,4.0,91,0.15,,,0.41,,2013-04-11 01:02:00,
2013-04-10 21:12:00,50.0,47.0,30.01,ENE,65,2.0,4.0,91,0.15,,,0.41,,2013-04-11 01:12:00,
2013-04-10 21:22:00,49.0,47.0,29.99,ESE,119,0.0,2.0,92,0.09,,,0.43,,2013-04-11 01:22:00,
2013-04-10 21:32:00,49.0,47.0,29.99,ESE,119,0.0,2.0,92,0.09,,,0.43,,2013-04-11 01:32:00,
2013-04-10 21:42:00,49.0,47.0,29.99,ESE,119,0.0,2.0,92,0.09,,,0.43,,2013-04-11 01:42:00,
2013-04-10 21:52:00,49.0,47.0,29.98,South,170,0.0,2.0,93,0.02,,,0.43,,2013-04-11 01:52:00,
2013-04-10 22:03:00,49.0,47.0,29.98,South,170,0.0,2.0,93,0.02,,,0.43,,2013-04-11 02:03:00,
2013-04-10 22:12:00,49.0,47.0,29.97,South,170,0.0,0.0,94,0.00,,,0.43,,2013-04-11 02:12:00,
2013-04-10 22:22:00,49.0,47.0,29.97,South,170,0.0,0.0,94,0.00,,,0.43,,2013-04-11 02:22:00,
2013-04-10 22:32:00,49.0,47.0,29.97,South,170,0.0,0.0,94,0.00,,,0.43,,2013-04-11 02:32:00,
2013-04-10 22:42:00,49.0,47.0,29.97,South,170,0.0,0.0,94,0.00,,,0.43,,2013-04-11 02:42:00,
2013-04-10 22:53:00,49.0,47.0,29.96,South,175,0.0,0.0,94,0.00,,,0.43,,2013-04-11 02:53:00,
2013-04-10 23:02:00,49.0,47.0,29.96,South,175,0.0,0.0,94,0.00,,,0.43,,2013-04-11 03:02:00,
2013-04-10 23:12:00,49.0,47.0,29.96,South,175,0.0,0.0,94,0.00,,,0.43,,2013-04-11 03:12:00,
2013-04-10 23:22:00,49.0,47.0,29.96,South,176,0.0,1.0,94,0.00,,,0.43,,2013-04-11 03:22:00,
2013-04-10 23:33:00,49.0,47.0,29.96,South,176,0.0,1.0,94,0.00,,,0.43,,2013-04-11 03:33:00,
2013-04-10 23:43:00,49.0,47.0,29.97,SSE,165,0.0,2.0,94,0.00,,,0.43,,2013-04-11 03:43:00,
2013-04-10 23:54:00,49.0,47.0,29.97,SSE,165,0.0,2.0,94,0.00,,,0.43,,2013-04-11 03:54:00,